createdAt,value
2023-01-29T00:01:54.079Z,83.51
2023-01-29T00:04:59.084Z,82.88
2023-01-29T00:08:01.943Z,83.45
2023-01-29T00:11:06.326Z,83.58
2023-01-29T00:14:08.691Z,83.54
2023-01-29T00:17:11.260Z,84.03
2023-01-29T00:20:13.915Z,84.09
2023-01-29T00:23:17.708Z,84.32
2023-01-29T00:26:19.877Z,83.89
2023-01-29T00:29:25.293Z,84.94
2023-01-29T00:32:27.505Z,85.08
2023-01-29T00:35:30.781Z,85.21
2023-01-29T00:38:35.379Z,86.16
2023-01-29T00:41:59.775Z,85.81
2023-01-29T00:45:04.195Z,85.75
2023-01-29T00:48:06.988Z,85.77
2023-01-29T00:51:09.395Z,87.21
2023-01-29T00:54:12.213Z,86.25
2023-01-29T00:57:15.030Z,85.92
2023-01-29T01:00:19.308Z,85.41
2023-01-29T01:03:21.719Z,85.72
2023-01-29T01:06:24.203Z,84.43
2023-01-29T01:09:45.106Z,83.21
2023-01-29T01:12:51.738Z,82.69
2023-01-29T01:15:56.088Z,82.66
2023-01-29T01:18:58.599Z,83.98
2023-01-29T01:22:01.239Z,82.90
2023-01-29T01:25:04.025Z,81.44
2023-01-29T01:28:06.379Z,82.04
2023-01-29T01:31:10.841Z,83.12
2023-01-29T01:34:13.104Z,83.74
2023-01-29T01:37:15.614Z,84.58
2023-01-29T01:40:22.738Z,84.77
2023-01-29T01:43:25.953Z,84.20
2023-01-29T01:46:36.838Z,83.32
2023-01-29T01:49:40.372Z,83.51
2023-01-29T01:52:52.049Z,84.05
2023-01-29T01:56:00.585Z,83.60
2023-01-29T01:59:02.982Z,84.15
2023-01-29T02:02:27.588Z,84.25
2023-01-29T02:05:55.072Z,84.55
2023-01-29T02:09:24.145Z,84.76
2023-01-29T02:12:31.102Z,84.85
2023-01-29T02:15:34.249Z,86.64
2023-01-29T02:18:39.461Z,86.70
2023-01-29T02:21:56.746Z,86.26
2023-01-29T02:25:28.387Z,86.51
2023-01-29T02:28:58.213Z,86.37
2023-01-29T02:32:03.906Z,86.35
2023-01-29T02:35:28.886Z,87.48
2023-01-29T02:38:49.311Z,87.64
2023-01-29T02:42:03.141Z,88.00
2023-01-29T02:45:15.385Z,89.01
2023-01-29T02:48:20.878Z,88.85
2023-01-29T02:51:35.181Z,88.44
2023-01-29T02:54:53.448Z,87.98
2023-01-29T02:58:03.843Z,88.12
2023-01-29T03:01:17.670Z,88.01
2023-01-29T03:04:31.311Z,87.01
2023-01-29T03:07:42.465Z,88.79
2023-01-29T03:10:57.612Z,88.58
2023-01-29T03:14:08.663Z,88.90
2023-01-29T03:17:11.705Z,89.09
2023-01-29T03:20:19.082Z,88.69
2023-01-29T03:23:27.251Z,88.30
2023-01-29T03:26:48.450Z,88.20
2023-01-29T03:30:14.314Z,88.62
2023-01-29T03:33:20.589Z,88.58
2023-01-29T03:36:37.982Z,88.36
2023-01-29T03:39:40.521Z,88.75
2023-01-29T03:43:19.485Z,87.92
2023-01-29T03:46:38.264Z,86.08
2023-01-29T03:49:49.234Z,87.25
2023-01-29T03:53:10.515Z,87.25
2023-01-29T03:56:28.999Z,87.59
2023-01-29T04:00:01.917Z,88.15
2023-01-29T04:03:35.137Z,87.23
2023-01-29T04:06:43.619Z,87.18
2023-01-29T04:09:50.498Z,85.94
2023-01-29T04:13:06.471Z,86.59
2023-01-29T04:16:15.456Z,85.59
2023-01-29T04:19:21.115Z,85.04
2023-01-29T04:22:36.253Z,85.83
2023-01-29T04:25:48.994Z,85.20
2023-01-29T04:29:17.098Z,84.77
2023-01-29T04:32:48.074Z,83.64
2023-01-29T04:36:00.108Z,84.91
2023-01-29T04:39:49.070Z,84.49
2023-01-29T04:43:07.343Z,84.50
2023-01-29T04:46:15.864Z,85.17
2023-01-29T04:49:27.528Z,84.86
2023-01-29T04:52:53.071Z,83.64
2023-01-29T04:56:12.439Z,84.03
2023-01-29T04:59:21.917Z,82.60
2023-01-29T05:02:28.991Z,81.83
2023-01-29T05:05:31.925Z,81.87
2023-01-29T05:08:37.319Z,81.38
2023-01-29T05:11:41.793Z,81.10
2023-01-29T05:14:47.794Z,80.38
2023-01-29T05:17:50.563Z,79.70
2023-01-29T05:20:56.395Z,79.63
2023-01-29T05:24:11.448Z,79.31
2023-01-29T05:27:39.455Z,79.05
2023-01-29T05:30:44.521Z,79.24
2023-01-29T05:33:46.752Z,79.63
2023-01-29T05:36:49.781Z,79.29
2023-01-29T05:39:54.239Z,78.57
2023-01-29T05:42:58.791Z,78.62
2023-01-29T05:46:03.733Z,79.19
2023-01-29T05:49:06.432Z,78.53
2023-01-29T05:52:10.445Z,78.50
2023-01-29T05:55:14.361Z,78.38
2023-01-29T05:58:16.556Z,78.02
2023-01-29T06:01:22.294Z,77.23
2023-01-29T06:04:24.734Z,76.96
2023-01-29T06:07:27.003Z,76.29
2023-01-29T06:10:29.681Z,74.68
2023-01-29T06:13:31.847Z,74.82
2023-01-29T06:16:34.440Z,75.16
2023-01-29T06:19:36.808Z,75.14
2023-01-29T06:22:39.352Z,74.65
2023-01-29T06:25:41.555Z,75.29
2023-01-29T06:28:48.153Z,74.78
2023-01-29T06:31:50.737Z,75.40
2023-01-29T06:34:55.533Z,74.83
2023-01-29T06:37:57.730Z,74.81
2023-01-29T06:41:09.366Z,76.31
2023-01-29T06:44:11.583Z,75.94
2023-01-29T06:47:14.071Z,75.70
2023-01-29T06:50:17.941Z,75.29
2023-01-29T06:53:21.860Z,75.36
2023-01-29T06:56:24.460Z,75.90
2023-01-29T06:59:27.068Z,74.34
2023-01-29T07:02:30.181Z,74.59
2023-01-29T07:05:34.257Z,74.32
2023-01-29T07:08:40.175Z,75.36
2023-01-29T07:11:42.862Z,75.95
2023-01-29T07:14:45.314Z,75.75
2023-01-29T07:18:07.640Z,76.97
2023-01-29T07:21:09.840Z,75.61
2023-01-29T07:24:12.643Z,75.86
2023-01-29T07:27:14.842Z,74.51
2023-01-29T07:30:18.216Z,75.27
2023-01-29T07:33:20.610Z,76.11
2023-01-29T07:36:24.156Z,74.70
2023-01-29T07:39:26.380Z,74.88
2023-01-29T07:42:29.434Z,73.90
2023-01-29T07:45:33.863Z,73.65
2023-01-29T07:48:36.591Z,73.30
2023-01-29T07:51:38.741Z,73.96
2023-01-29T07:54:41.389Z,73.76
2023-01-29T07:57:44.478Z,72.24
2023-01-29T08:00:46.984Z,72.53
2023-01-29T08:03:51.241Z,72.05
2023-01-29T08:06:53.709Z,69.83
2023-01-29T08:09:58.219Z,69.58
2023-01-29T08:13:03.020Z,69.72
2023-01-29T08:16:07.344Z,69.31
2023-01-29T08:19:09.511Z,70.48
2023-01-29T08:22:12.037Z,70.38
2023-01-29T08:25:15.198Z,70.92
2023-01-29T08:28:18.109Z,71.90
2023-01-29T08:31:23.512Z,71.52
2023-01-29T08:34:29.356Z,72.60
2023-01-29T08:37:31.546Z,71.81
2023-01-29T08:40:35.335Z,70.49
2023-01-29T08:43:38.863Z,69.10
2023-01-29T08:46:41.528Z,69.91
2023-01-29T08:49:45.846Z,67.58
2023-01-29T08:52:49.891Z,67.95
2023-01-29T08:55:52.830Z,68.53
2023-01-29T08:58:55.273Z,67.53
2023-01-29T09:02:00.297Z,66.90
2023-01-29T09:05:02.725Z,67.77
2023-01-29T09:08:06.372Z,66.57
2023-01-29T09:11:09.258Z,67.28
2023-01-29T09:14:24.789Z,67.94
2023-01-29T09:17:27.279Z,67.02
2023-01-29T09:20:29.475Z,67.49
2023-01-29T09:23:32.299Z,67.29
2023-01-29T09:26:34.540Z,67.95
2023-01-29T09:29:37.455Z,67.79
2023-01-29T09:32:55.288Z,67.38
2023-01-29T09:35:57.970Z,66.76
2023-01-29T09:39:00.365Z,66.23
2023-01-29T09:42:23.196Z,65.73
2023-01-29T09:45:28.265Z,65.86
2023-01-29T09:48:34.812Z,65.66
2023-01-29T09:52:10.523Z,64.69
2023-01-29T09:55:24.938Z,64.63
2023-01-29T09:58:39.041Z,64.29
2023-01-29T10:01:54.756Z,64.96
2023-01-29T10:05:28.491Z,64.05
2023-01-29T10:08:33.717Z,65.53
2023-01-29T10:11:57.775Z,66.15
2023-01-29T10:15:19.629Z,64.59
2023-01-29T10:18:57.727Z,63.65
2023-01-29T10:22:25.353Z,65.22
2023-01-29T10:25:28.913Z,64.16
2023-01-29T10:28:51.581Z,63.68
2023-01-29T10:32:07.284Z,63.03
2023-01-29T10:35:30.808Z,62.29
2023-01-29T10:38:47.732Z,63.17
2023-01-29T10:42:29.045Z,62.96
2023-01-29T10:46:06.451Z,63.22
2023-01-29T10:49:14.429Z,63.97
2023-01-29T10:52:41.266Z,63.03
2023-01-29T10:55:51.194Z,62.89
2023-01-29T10:59:01.627Z,63.09
2023-01-29T11:02:16.493Z,63.76
2023-01-29T11:05:28.246Z,63.12
2023-01-29T11:08:54.740Z,62.69
2023-01-29T11:12:10.089Z,61.96
2023-01-29T11:15:18.725Z,61.97
2023-01-29T11:18:21.200Z,61.74
2023-01-29T11:21:25.339Z,60.89
2023-01-29T11:24:28.776Z,60.86
2023-01-29T11:27:37.895Z,60.64
2023-01-29T11:30:41.842Z,61.49
2023-01-29T11:33:45.918Z,61.59
2023-01-29T11:37:01.403Z,61.37
2023-01-29T11:40:19.143Z,61.25
2023-01-29T11:43:34.290Z,59.80
2023-01-29T11:46:39.843Z,60.37
2023-01-29T11:49:51.346Z,59.64
2023-01-29T11:52:54.519Z,59.25
2023-01-29T11:55:57.225Z,59.39
2023-01-29T11:59:04.391Z,59.72
2023-01-29T12:02:28.038Z,59.82
2023-01-29T12:05:30.715Z,57.14
2023-01-29T12:08:39.937Z,56.05
2023-01-29T12:11:42.440Z,56.00
2023-01-29T12:14:45.885Z,55.50
2023-01-29T12:18:23.763Z,55.10
2023-01-29T12:21:46.575Z,54.59
2023-01-29T12:24:54.763Z,54.92
2023-01-29T12:28:20.572Z,54.46
2023-01-29T12:31:39.156Z,54.78
2023-01-29T12:34:55.360Z,55.44
2023-01-29T12:38:16.325Z,56.57
2023-01-29T12:41:30.877Z,57.92
2023-01-29T12:44:42.389Z,57.41
2023-01-29T12:47:49.277Z,57.33
2023-01-29T12:50:53.893Z,57.70
2023-01-29T12:54:21.618Z,57.75
2023-01-29T12:57:49.844Z,58.36
2023-01-29T13:00:55.301Z,58.63
2023-01-29T13:04:14.862Z,58.23
2023-01-29T13:07:31.281Z,59.46
2023-01-29T13:10:41.212Z,58.40
2023-01-29T13:13:54.631Z,59.56
2023-01-29T13:17:20.177Z,60.52
2023-01-29T13:20:30.567Z,60.64
2023-01-29T13:23:47.238Z,61.01
2023-01-29T13:26:49.953Z,61.67
2023-01-29T13:29:54.534Z,60.35
2023-01-29T13:33:09.141Z,60.85
2023-01-29T13:36:21.987Z,60.61
2023-01-29T13:39:39.629Z,60.63
2023-01-29T13:42:49.939Z,61.33
2023-01-29T13:45:54.684Z,60.18
2023-01-29T13:49:00.840Z,59.98
2023-01-29T13:52:31.835Z,59.56
2023-01-29T13:55:40.320Z,59.45
2023-01-29T13:59:05.235Z,58.90
2023-01-29T14:02:24.551Z,58.72
2023-01-29T14:05:32.486Z,58.64
2023-01-29T14:08:34.805Z,58.81
2023-01-29T14:11:37.462Z,60.01
2023-01-29T14:14:48.416Z,59.78
2023-01-29T14:18:02.853Z,60.17
2023-01-29T14:21:19.238Z,60.44
2023-01-29T14:24:29.202Z,59.58
2023-01-29T14:27:32.431Z,60.85
2023-01-29T14:30:36.604Z,60.53
2023-01-29T14:33:42.363Z,60.96
2023-01-29T14:36:47.488Z,60.36
2023-01-29T14:39:51.964Z,60.65
2023-01-29T14:43:00.461Z,60.47
2023-01-29T14:46:36.216Z,60.78
2023-01-29T14:50:00.697Z,61.57
2023-01-29T14:53:30.980Z,61.89
2023-01-29T14:56:42.947Z,61.35
2023-01-29T15:00:17.358Z,61.74
2023-01-29T15:03:29.468Z,61.74
2023-01-29T15:06:53.013Z,61.65
2023-01-29T15:10:21.959Z,61.54
2023-01-29T15:13:35.892Z,61.24
2023-01-29T15:17:06.697Z,60.82
2023-01-29T15:20:33.608Z,61.54
2023-01-29T15:23:36.348Z,61.21
2023-01-29T15:26:38.783Z,63.00
2023-01-29T15:29:43.315Z,61.81
2023-01-29T15:32:47.937Z,61.87
2023-01-29T15:36:07.331Z,62.80
2023-01-29T15:39:13.330Z,62.80
2023-01-29T15:42:21.733Z,62.69
2023-01-29T15:45:29.281Z,63.02
2023-01-29T15:48:36.495Z,63.58
2023-01-29T15:51:39.131Z,64.16
2023-01-29T15:54:41.758Z,64.91
2023-01-29T15:57:45.360Z,63.72
2023-01-29T16:00:56.788Z,63.89
2023-01-29T16:04:06.540Z,63.45
2023-01-29T16:07:08.723Z,64.40
2023-01-29T16:10:20.831Z,64.67
2023-01-29T16:13:26.256Z,64.53
2023-01-29T16:16:29.092Z,65.79
2023-01-29T16:19:31.362Z,65.42
2023-01-29T16:22:37.058Z,65.21
2023-01-29T16:25:39.525Z,66.02
2023-01-29T16:28:43.751Z,65.15
2023-01-29T16:31:48.435Z,66.78
2023-01-29T16:34:58.100Z,66.56
2023-01-29T16:38:03.445Z,65.47
2023-01-29T16:41:20.937Z,66.56
2023-01-29T16:44:37.252Z,65.72
2023-01-29T16:47:43.610Z,66.21
2023-01-29T16:50:54.696Z,66.95
2023-01-29T16:54:02.126Z,65.89
2023-01-29T16:57:06.716Z,65.86
2023-01-29T17:00:21.853Z,66.13
2023-01-29T17:03:27.215Z,66.19
2023-01-29T17:06:32.400Z,66.19
2023-01-29T17:09:37.679Z,66.89
2023-01-29T17:12:40.163Z,67.29
2023-01-29T17:15:43.066Z,66.76
2023-01-29T17:18:45.562Z,67.09
2023-01-29T17:21:47.824Z,66.78
2023-01-29T17:24:51.560Z,68.00
2023-01-29T17:27:55.155Z,66.94
2023-01-29T17:31:06.762Z,66.24
2023-01-29T17:34:14.335Z,66.07
2023-01-29T17:37:17.248Z,66.41
2023-01-29T17:40:55.446Z,65.80
2023-01-29T17:43:58.324Z,65.91
2023-01-29T17:47:00.854Z,66.16
2023-01-29T17:50:06.925Z,66.31
2023-01-29T17:53:09.651Z,65.93
2023-01-29T17:56:21.376Z,66.24
2023-01-29T17:59:27.621Z,66.33
2023-01-29T18:02:30.242Z,67.58
2023-01-29T18:05:34.927Z,67.01
2023-01-29T18:08:38.686Z,66.24
2023-01-29T18:11:42.886Z,67.33
2023-01-29T18:14:45.081Z,67.20
2023-01-29T18:17:48.440Z,67.96
2023-01-29T18:20:51.181Z,67.78
2023-01-29T18:23:53.676Z,67.22
2023-01-29T18:26:55.953Z,67.56
2023-01-29T18:29:58.378Z,67.17
2023-01-29T18:33:00.629Z,67.20
2023-01-29T18:36:05.154Z,67.35
2023-01-29T18:39:07.490Z,68.22
2023-01-29T18:42:10.183Z,67.80
2023-01-29T18:45:13.244Z,68.96
2023-01-29T18:48:15.767Z,67.80
2023-01-29T18:51:17.999Z,68.34
2023-01-29T18:54:21.445Z,68.21
2023-01-29T18:58:27.755Z,68.33
2023-01-29T19:00:46.076Z,68.77
2023-01-29T19:03:48.388Z,68.94
2023-01-29T19:06:51.157Z,68.83
2023-01-29T19:09:53.798Z,68.71
2023-01-29T19:12:58.741Z,69.22
2023-01-29T19:16:01.344Z,69.46
2023-01-29T19:19:03.936Z,69.95
2023-01-29T19:22:06.130Z,70.23
2023-01-29T19:25:09.294Z,69.40
2023-01-29T19:28:11.742Z,69.42
2023-01-29T19:31:14.383Z,70.19
2023-01-29T19:34:20.132Z,70.31
2023-01-29T19:37:22.706Z,70.13
2023-01-29T19:40:26.477Z,70.46
2023-01-29T19:43:34.668Z,70.20
2023-01-29T19:46:37.134Z,70.42
2023-01-29T19:49:40.889Z,70.42
2023-01-29T19:52:51.662Z,70.40
2023-01-29T19:56:07.872Z,70.83
2023-01-29T19:59:11.396Z,71.64
2023-01-29T20:02:14.324Z,71.61
2023-01-29T20:05:18.418Z,71.20
2023-01-29T20:08:23.510Z,71.59
2023-01-29T20:11:26.061Z,71.14
2023-01-29T20:14:28.560Z,70.66
2023-01-29T20:17:33.403Z,70.65
2023-01-29T20:20:39.441Z,71.00
2023-01-29T20:23:43.755Z,71.93
2023-01-29T20:26:47.313Z,70.45
2023-01-29T20:29:52.485Z,70.36
2023-01-29T20:32:54.722Z,69.45
2023-01-29T20:35:59.350Z,70.01
2023-01-29T20:39:01.862Z,69.93
2023-01-29T20:42:04.414Z,70.29
2023-01-29T20:45:06.965Z,69.93
2023-01-29T20:48:09.449Z,69.67
2023-01-29T20:51:17.021Z,69.09
2023-01-29T20:54:19.841Z,69.41
2023-01-29T20:57:24.353Z,69.75
2023-01-29T21:00:27.954Z,69.05
2023-01-29T21:03:30.184Z,69.34
2023-01-29T21:06:32.977Z,69.85
2023-01-29T21:09:35.368Z,69.14
2023-01-29T21:12:37.907Z,69.18
2023-01-29T21:15:43.782Z,70.78
2023-01-29T21:18:47.380Z,69.71
2023-01-29T21:21:49.518Z,69.91
2023-01-29T21:24:51.960Z,70.17
2023-01-29T21:27:54.140Z,70.20
2023-01-29T21:31:11.267Z,70.31
2023-01-29T21:34:14.411Z,70.06
2023-01-29T21:37:16.915Z,69.71
2023-01-29T21:40:22.632Z,71.00
2023-01-29T21:43:27.140Z,71.26
2023-01-29T21:46:30.311Z,71.44
2023-01-29T21:49:32.773Z,71.13
2023-01-29T21:52:34.895Z,71.05
2023-01-29T21:55:38.623Z,71.08
2023-01-29T21:58:41.215Z,71.39
2023-01-29T22:01:43.763Z,71.75
2023-01-29T22:04:46.277Z,70.64
2023-01-29T22:07:49.674Z,71.14
2023-01-29T22:10:52.413Z,72.03
2023-01-29T22:13:54.947Z,72.40
2023-01-29T22:16:59.564Z,72.96
2023-01-29T22:20:01.999Z,72.82
2023-01-29T22:23:04.795Z,73.15
2023-01-29T22:26:09.881Z,72.71
2023-01-29T22:29:13.536Z,73.35
2023-01-29T22:32:16.430Z,72.71
2023-01-29T22:35:20.466Z,73.30
2023-01-29T22:38:23.857Z,72.56
2023-01-29T22:41:26.369Z,72.34
2023-01-29T22:44:28.775Z,72.51
2023-01-29T22:47:32.832Z,73.07
2023-01-29T22:50:34.982Z,72.01
2023-01-29T22:53:51.740Z,72.38
2023-01-29T22:56:53.839Z,72.45
2023-01-29T22:59:58.787Z,72.81
2023-01-29T23:03:03.479Z,73.04
2023-01-29T23:06:08.070Z,73.09
2023-01-29T23:09:10.246Z,73.43
2023-01-29T23:12:14.931Z,73.44
2023-01-29T23:15:17.104Z,74.48
2023-01-29T23:18:19.938Z,73.94
2023-01-29T23:21:24.875Z,72.85
2023-01-29T23:24:27.373Z,72.67
2023-01-29T23:27:29.690Z,73.36
2023-01-29T23:30:34.303Z,74.15
2023-01-29T23:33:37.059Z,73.84
2023-01-29T23:36:39.632Z,73.97
2023-01-29T23:39:41.967Z,73.58
2023-01-29T23:42:44.540Z,73.75
2023-01-29T23:45:46.725Z,74.33
2023-01-29T23:48:49.287Z,74.14
2023-01-29T23:51:55.319Z,74.63
2023-01-29T23:54:57.778Z,74.31
2023-01-29T23:57:59.995Z,74.31
